createdAt,value
2018-03-08T00:01:13.569Z,99273.89
2018-03-08T00:04:19.137Z,99272.22
2018-03-08T00:07:24.680Z,99276.84
2018-03-08T00:10:30.183Z,99274.77
2018-03-08T00:13:35.492Z,99276.03
2018-03-08T00:16:41.001Z,99273.92
2018-03-08T00:19:46.558Z,99276.45
2018-03-08T00:22:52.068Z,99277.73
2018-03-08T00:25:57.628Z,99272.69
2018-03-08T00:29:03.139Z,99278.98
2018-03-08T00:32:08.686Z,99277.30
2018-03-08T00:35:13.991Z,99280.27
2018-03-08T00:38:19.504Z,99281.50
2018-03-08T00:41:25.056Z,99279.41
2018-03-08T00:44:30.589Z,99278.16
2018-03-08T00:47:36.531Z,99278.98
2018-03-08T00:50:45.506Z,99281.09
2018-03-08T00:53:50.809Z,99278.18
2018-03-08T00:56:56.309Z,99278.16
2018-03-08T01:00:01.863Z,99275.21
2018-03-08T01:03:07.447Z,99273.53
2018-03-08T01:06:12.700Z,99269.34
2018-03-08T01:09:18.030Z,99272.27
2018-03-08T01:12:23.540Z,99271.01
2018-03-08T01:15:29.121Z,99267.22
2018-03-08T01:18:34.656Z,99268.92
2018-03-08T01:21:40.199Z,99269.72
2018-03-08T01:24:45.768Z,99267.66
2018-03-08T01:27:51.489Z,99262.58
2018-03-08T01:30:57.016Z,99259.22
2018-03-08T01:34:02.582Z,99268.51
2018-03-08T01:37:08.129Z,99270.56
2018-03-08T01:40:13.641Z,99264.69
2018-03-08T01:43:19.197Z,99265.12
2018-03-08T01:46:24.880Z,99273.95
2018-03-08T01:53:32.912Z,99266.81
2018-03-08T01:56:54.610Z,99269.77
2018-03-08T02:00:07.646Z,99270.59
2018-03-08T02:03:18.949Z,99271.45
2018-03-08T02:06:27.533Z,99263.48
2018-03-08T02:09:35.746Z,99265.98
2018-03-08T02:12:42.616Z,99261.75
2018-03-08T02:15:50.338Z,99260.48
2018-03-08T02:18:57.385Z,99262.98
2018-03-08T02:22:05.495Z,99264.25
2018-03-08T02:25:11.262Z,99267.61
2018-03-08T02:28:16.772Z,99264.66
2018-03-08T02:31:22.337Z,99259.61
2018-03-08T02:34:27.868Z,99257.08
2018-03-08T02:37:33.450Z,99254.55
2018-03-08T02:40:43.429Z,99263.38
2018-03-08T02:43:48.967Z,99257.47
2018-03-08T02:46:54.472Z,99259.58
2018-03-08T02:50:00.009Z,99258.76
2018-03-08T02:53:05.508Z,99262.94
2018-03-08T02:56:11.065Z,99265.88
2018-03-08T02:59:16.564Z,99263.34
2018-03-08T03:02:22.100Z,99265.02
2018-03-08T03:05:27.414Z,99258.70
2018-03-08T03:08:32.953Z,99254.91
2018-03-08T03:11:38.594Z,99248.18
2018-03-08T03:14:44.194Z,99247.77
2018-03-08T03:17:49.728Z,99250.27
2018-03-08T03:20:55.227Z,99256.17
2018-03-08T03:24:00.778Z,99249.45
2018-03-08T03:27:06.372Z,99257.00
2018-03-08T03:30:11.930Z,99257.00
2018-03-08T03:33:17.450Z,99257.00
2018-03-08T03:36:23.010Z,99259.53
2018-03-08T03:39:28.513Z,99262.06
2018-03-08T03:42:34.066Z,99263.73
2018-03-08T03:45:39.579Z,99257.83
2018-03-08T03:48:45.135Z,99258.66
2018-03-08T03:51:50.637Z,99252.77
2018-03-08T03:54:56.193Z,99257.83
2018-03-08T03:58:01.697Z,99253.59
2018-03-08T04:01:08.247Z,99254.45
2018-03-08T04:04:13.774Z,99253.19
2018-03-08T04:07:19.334Z,99260.77
2018-03-08T04:10:24.844Z,99267.91
2018-03-08T04:13:30.411Z,99262.88
2018-03-08T04:16:35.907Z,99265.38
2018-03-08T04:19:41.468Z,99272.96
2018-03-08T04:22:46.973Z,99272.53
2018-03-08T04:25:52.534Z,99274.67
2018-03-08T04:28:58.036Z,99266.64
2018-03-08T04:32:03.621Z,99265.38
2018-03-08T04:35:09.211Z,99273.84
2018-03-08T04:38:14.760Z,99278.45
2018-03-08T04:41:20.274Z,99271.31
2018-03-08T04:44:25.842Z,99274.67
2018-03-08T04:47:31.347Z,99280.16
2018-03-08T04:50:36.899Z,99280.16
2018-03-08T04:53:42.485Z,99275.93
2018-03-08T04:56:48.002Z,99278.90
2018-03-08T04:59:53.577Z,99276.78
2018-03-08T05:02:59.095Z,99275.93
2018-03-08T05:06:04.633Z,99274.69
2018-03-08T05:09:10.165Z,99271.73
2018-03-08T05:12:16.078Z,99276.34
2018-03-08T05:15:21.324Z,99289.45
2018-03-08T05:18:26.918Z,99286.09
2018-03-08T05:21:32.425Z,99281.84
2018-03-08T05:24:37.981Z,99284.39
2018-03-08T05:27:45.034Z,99284.77
2018-03-08T05:30:54.011Z,99290.25
2018-03-08T05:34:01.301Z,99281.84
2018-03-08T05:37:06.832Z,99286.06
2018-03-08T05:40:12.382Z,99283.52
2018-03-08T05:43:19.042Z,99286.02
2018-03-08T05:46:25.021Z,99283.55
2018-03-08T05:49:30.581Z,99287.33
2018-03-08T05:52:36.422Z,99292.80
2018-03-08T05:55:42.438Z,99289.42
2018-03-08T05:58:48.121Z,99290.71
2018-03-08T06:01:55.537Z,99292.39
2018-03-08T06:05:03.791Z,99297.44
2018-03-08T06:08:10.130Z,99305.44
2018-03-08T06:11:15.777Z,99314.28
2018-03-08T06:14:21.334Z,99325.22
2018-03-08T06:17:26.854Z,99321.86
2018-03-08T06:20:32.399Z,99320.16
2018-03-08T06:23:37.957Z,99317.64
2018-03-08T06:26:50.954Z,99321.81
2018-03-08T06:29:56.353Z,99325.19
2018-03-08T06:33:01.853Z,99321.42
2018-03-08T06:36:07.385Z,99330.25
2018-03-08T06:39:12.925Z,99328.98
2018-03-08T06:42:18.469Z,99332.34
2018-03-08T06:45:23.977Z,99328.11
2018-03-08T06:48:29.568Z,99337.78
2018-03-08T06:51:35.082Z,99342.81
2018-03-08T06:54:40.746Z,99343.64
2018-03-08T06:57:46.260Z,99344.46
2018-03-08T07:00:51.828Z,99346.11
2018-03-08T07:03:57.374Z,99344.41
2018-03-08T07:07:02.878Z,99344.83
2018-03-08T07:10:08.420Z,99346.03
2018-03-08T07:13:13.945Z,99343.50
2018-03-08T07:16:19.488Z,99355.27
2018-03-08T07:19:25.045Z,99354.80
2018-03-08T07:22:30.576Z,99359.84
2018-03-08T07:25:36.339Z,99363.17
2018-03-08T07:28:41.859Z,99366.08
2018-03-08T07:31:47.409Z,99364.38
2018-03-08T07:34:52.949Z,99371.03
2018-03-08T07:37:58.452Z,99376.45
2018-03-08T07:41:04.006Z,99378.95
2018-03-08T07:44:09.561Z,99378.91
2018-03-08T07:47:15.081Z,99384.32
2018-03-08T07:50:20.628Z,99386.00
2018-03-08T07:53:26.137Z,99391.42
2018-03-08T07:56:31.693Z,99397.23
2018-03-08T07:59:37.214Z,99395.09
2018-03-08T08:02:42.769Z,99399.22
2018-03-08T08:05:59.167Z,99399.16
2018-03-08T08:09:09.889Z,99405.85
2018-03-08T08:12:15.452Z,99409.56
2018-03-08T08:15:20.999Z,99414.55
2018-03-08T08:18:26.507Z,99414.03
2018-03-08T08:21:32.049Z,99428.31
2018-03-08T08:24:37.553Z,99422.30
2018-03-08T08:27:44.331Z,99432.77
2018-03-08T08:30:49.829Z,99434.34
2018-03-08T08:33:55.385Z,99440.20
2018-03-08T08:37:00.926Z,99443.52
2018-03-08T08:40:06.471Z,99451.38
2018-03-08T08:43:12.026Z,99456.36
2018-03-08T08:46:17.521Z,99454.63
2018-03-08T08:49:23.061Z,99460.06
2018-03-08T08:52:28.646Z,99462.59
2018-03-08T08:55:34.165Z,99471.84
2018-03-08T08:58:39.733Z,99474.70
2018-03-08T09:01:45.238Z,99472.55
2018-03-08T09:04:50.786Z,99475.06
2018-03-08T09:07:56.293Z,99480.53
2018-03-08T09:11:01.844Z,99486.01
2018-03-08T09:14:07.442Z,99489.34
2018-03-08T09:17:12.961Z,99480.89
2018-03-08T09:20:18.510Z,99485.48
2018-03-08T09:23:24.020Z,99477.46
2018-03-08T09:26:29.589Z,99478.73
2018-03-08T09:29:35.154Z,99483.73
2018-03-08T09:32:40.642Z,99479.50
2018-03-08T09:35:46.184Z,99476.50
2018-03-08T09:38:51.684Z,99474.80
2018-03-08T09:41:57.248Z,99473.92
2018-03-08T09:45:02.824Z,99475.96
2018-03-08T09:48:08.880Z,99481.80
2018-03-08T09:51:14.425Z,99485.13
2018-03-08T09:54:19.967Z,99473.27
2018-03-08T09:57:25.515Z,99481.20
2018-03-08T10:00:31.050Z,99475.64
2018-03-08T10:03:36.558Z,99475.50
2018-03-08T10:06:42.110Z,99475.37
2018-03-08T10:09:47.617Z,99478.18
2018-03-08T10:12:53.191Z,99485.20
2018-03-08T10:15:58.756Z,99483.80
2018-03-08T10:19:04.302Z,99481.19
2018-03-08T10:22:09.615Z,99476.02
2018-03-08T10:25:15.142Z,99480.09
2018-03-08T10:28:20.682Z,99475.70
2018-03-08T10:31:26.188Z,99483.61
2018-03-08T10:34:31.737Z,99484.30
2018-03-08T10:37:37.249Z,99492.61
2018-03-08T10:40:46.272Z,99492.03
2018-03-08T10:43:51.793Z,99493.59
2018-03-08T10:46:57.352Z,99494.72
2018-03-08T10:50:02.857Z,99497.58
2018-03-08T10:53:08.397Z,99497.44
2018-03-08T10:56:13.917Z,99499.03
2018-03-08T10:59:19.455Z,99493.00
2018-03-08T11:02:30.287Z,99495.38
2018-03-08T11:05:41.095Z,99501.16
2018-03-08T11:08:46.638Z,99501.88
2018-03-08T11:11:52.141Z,99508.95
2018-03-08T11:14:57.677Z,99499.52
2018-03-08T11:18:03.189Z,99506.56
2018-03-08T11:21:08.733Z,99501.76
2018-03-08T11:24:14.240Z,99502.91
2018-03-08T11:27:19.797Z,99500.61
2018-03-08T11:30:25.313Z,99500.42
2018-03-08T11:33:30.877Z,99496.91
2018-03-08T11:36:36.385Z,99491.63
2018-03-08T11:39:41.946Z,99494.77
2018-03-08T11:42:47.502Z,99492.47
2018-03-08T11:45:53.007Z,99492.72
2018-03-08T11:48:58.562Z,99489.05
2018-03-08T11:52:04.064Z,99485.53
2018-03-08T11:55:09.611Z,99490.83
2018-03-08T11:58:14.973Z,99480.48
2018-03-08T12:01:20.505Z,99475.22
2018-03-08T12:04:26.018Z,99472.90
2018-03-08T12:07:31.569Z,99472.23
2018-03-08T12:10:37.118Z,99474.53
2018-03-08T12:13:42.630Z,99479.83
2018-03-08T12:16:48.186Z,99482.66
2018-03-08T12:19:53.916Z,99477.75
2018-03-08T12:22:59.467Z,99485.17
2018-03-08T12:26:04.971Z,99485.42
2018-03-08T12:29:10.523Z,99481.38
2018-03-08T12:32:16.035Z,99481.20
2018-03-08T12:35:21.582Z,99481.38
2018-03-08T12:38:27.232Z,99481.66
2018-03-08T12:41:32.735Z,99472.97
2018-03-08T12:44:38.089Z,99472.35
2018-03-08T12:47:43.614Z,99474.34
2018-03-08T12:50:49.182Z,99466.95
2018-03-08T12:53:54.681Z,99467.68
2018-03-08T12:57:00.240Z,99466.27
2018-03-08T13:00:05.818Z,99458.56
2018-03-08T13:03:11.335Z,99453.31
2018-03-08T13:06:16.610Z,99453.99
2018-03-08T13:09:22.121Z,99446.25
2018-03-08T13:12:27.682Z,99437.22
2018-03-08T13:15:33.240Z,99441.75
2018-03-08T13:18:38.820Z,99443.70
2018-03-08T13:21:44.118Z,99441.83
2018-03-08T13:24:49.629Z,99432.79
2018-03-08T13:27:55.171Z,99427.52
2018-03-08T13:31:00.713Z,99422.28
2018-03-08T13:34:06.210Z,99412.75
2018-03-08T13:37:11.773Z,99409.20
2018-03-08T13:40:17.328Z,99408.23
2018-03-08T13:43:23.075Z,99404.19
2018-03-08T13:46:28.595Z,99398.53
2018-03-08T13:49:37.472Z,99395.36
2018-03-08T13:52:43.032Z,99379.86
2018-03-08T13:55:48.542Z,99384.34
2018-03-08T13:58:54.134Z,99375.21
2018-03-08T14:01:59.389Z,99379.77
2018-03-08T14:05:04.647Z,99374.52
2018-03-08T14:08:09.881Z,99364.59
2018-03-08T14:11:15.445Z,99366.55
2018-03-08T14:14:20.958Z,99355.30
2018-03-08T14:17:26.517Z,99350.88
2018-03-08T14:20:32.017Z,99347.63
2018-03-08T14:23:37.806Z,99336.06
2018-03-08T14:26:43.312Z,99342.22
2018-03-08T14:29:48.867Z,99342.03
2018-03-08T14:32:54.357Z,99340.25
2018-03-08T14:36:00.130Z,99329.58
2018-03-08T14:39:05.124Z,99327.77
2018-03-08T14:42:10.726Z,99319.60
2018-03-08T14:45:16.458Z,99316.19
2018-03-08T14:48:21.960Z,99310.53
2018-03-08T14:51:27.511Z,99308.39
2018-03-08T14:54:33.026Z,99296.92
2018-03-08T14:57:44.805Z,99302.31
2018-03-08T15:00:50.352Z,99291.71
2018-03-08T15:03:55.844Z,99289.49
2018-03-08T15:07:01.386Z,99280.17
2018-03-08T15:10:06.887Z,99275.41
2018-03-08T15:13:12.433Z,99277.13
2018-03-08T15:16:17.928Z,99271.58
2018-03-08T15:19:23.465Z,99259.17
2018-03-08T15:22:29.012Z,99254.58
2018-03-08T15:25:34.507Z,99260.08
2018-03-08T15:28:40.048Z,99257.53
2018-03-08T15:31:45.562Z,99247.80
2018-03-08T15:34:51.103Z,99246.03
2018-03-08T15:37:56.630Z,99242.70
2018-03-08T15:41:02.126Z,99246.56
2018-03-08T15:44:07.665Z,99238.97
2018-03-08T15:47:13.160Z,99236.91
2018-03-08T15:50:18.693Z,99234.78
2018-03-08T15:53:24.210Z,99232.31
2018-03-08T15:56:29.748Z,99226.91
2018-03-08T15:59:35.385Z,99228.17
2018-03-08T16:02:40.870Z,99229.13
2018-03-08T16:05:46.396Z,99227.52
2018-03-08T16:09:06.960Z,99226.70
2018-03-08T16:12:12.486Z,99221.69
2018-03-08T16:15:18.649Z,99222.19
2018-03-08T16:18:24.241Z,99215.91
2018-03-08T16:21:42.603Z,99212.53
2018-03-08T16:24:48.157Z,99221.94
2018-03-08T16:27:58.082Z,99216.48
2018-03-08T16:31:03.598Z,99214.89
2018-03-08T16:34:09.198Z,99211.15
2018-03-08T16:37:14.752Z,99211.23
2018-03-08T16:40:31.708Z,99209.63
2018-03-08T16:43:54.900Z,99208.85
2018-03-08T16:47:31.909Z,99215.30
2018-03-08T16:50:53.879Z,99203.11
2018-03-08T16:54:30.231Z,99216.33
2018-03-08T16:57:54.688Z,99221.13
2018-03-08T17:01:20.741Z,99218.63
2018-03-08T17:04:43.593Z,99221.25
2018-03-08T17:08:06.555Z,99223.52
2018-03-08T17:11:27.871Z,99225.00
2018-03-08T17:14:50.530Z,99223.39
2018-03-08T17:18:04.232Z,99227.78
2018-03-08T17:21:21.143Z,99218.55
2018-03-08T17:24:34.562Z,99224.47
2018-03-08T17:28:06.770Z,99215.34
2018-03-08T17:31:27.413Z,99222.69
2018-03-08T17:34:47.223Z,99221.91
2018-03-08T17:38:10.672Z,99229.71
2018-03-08T17:41:37.044Z,99235.33
2018-03-08T17:45:01.068Z,99239.27
2018-03-08T17:48:26.386Z,99233.84
2018-03-08T17:52:06.955Z,99235.69
2018-03-08T17:55:25.604Z,99235.32
2018-03-08T17:58:42.544Z,99242.58
2018-03-08T18:01:57.643Z,99235.48
2018-03-08T18:05:19.600Z,99237.28
2018-03-08T18:08:43.278Z,99229.28
2018-03-08T18:12:10.982Z,99231.48
2018-03-08T18:15:25.968Z,99229.88
2018-03-08T18:18:33.890Z,99226.20
2018-03-08T18:21:39.454Z,99234.72
2018-03-08T18:24:44.961Z,99228.86
2018-03-08T18:27:50.520Z,99229.42
2018-03-08T18:30:56.061Z,99228.30
2018-03-08T18:34:01.515Z,99224.58
2018-03-08T18:37:08.749Z,99224.69
2018-03-08T18:40:14.278Z,99220.12
2018-03-08T18:43:32.946Z,99224.52
2018-03-08T18:46:49.284Z,99224.63
2018-03-08T18:50:24.694Z,99207.41
2018-03-08T18:53:47.251Z,99214.28
2018-03-08T18:57:09.654Z,99211.89
2018-03-08T19:00:37.890Z,99207.34
2018-03-08T19:04:17.280Z,99203.20
2018-03-08T19:07:35.334Z,99204.13
2018-03-08T19:10:55.325Z,99199.16
2018-03-08T19:14:18.406Z,99196.73
2018-03-08T19:17:39.010Z,99191.32
2018-03-08T19:21:15.650Z,99197.75
2018-03-08T19:24:40.547Z,99203.33
2018-03-08T19:28:20.279Z,99198.39
2018-03-08T19:31:42.885Z,99193.39
2018-03-08T19:35:01.372Z,99197.69
2018-03-08T19:38:22.507Z,99195.67
2018-03-08T19:41:41.714Z,99202.89
2018-03-08T19:44:59.545Z,99199.56
2018-03-08T19:48:13.437Z,99205.17
2018-03-08T19:51:32.773Z,99198.45
2018-03-08T19:54:58.391Z,99206.97
2018-03-08T19:58:32.193Z,99207.34
2018-03-08T20:01:50.414Z,99202.25
2018-03-08T20:05:05.602Z,99195.64
2018-03-08T20:08:27.730Z,99189.33
2018-03-08T20:11:48.769Z,99189.00
2018-03-08T20:15:00.392Z,99195.88
2018-03-08T20:18:05.724Z,99198.90
2018-03-08T20:21:11.226Z,99209.14
2018-03-08T20:24:16.758Z,99204.09
2018-03-08T20:27:23.447Z,99202.45
2018-03-08T20:30:31.916Z,99191.02
2018-03-08T20:33:38.918Z,99194.00
2018-03-08T20:36:45.654Z,99189.93
2018-03-08T20:39:53.661Z,99189.56
2018-03-08T20:42:59.219Z,99190.91
2018-03-08T20:46:04.761Z,99187.17
2018-03-08T20:49:10.311Z,99185.56
2018-03-08T20:52:15.806Z,99183.96
2018-03-08T20:55:21.440Z,99181.94
2018-03-08T20:58:27.184Z,99185.42
2018-03-08T21:01:32.754Z,99180.08
2018-03-08T21:04:38.369Z,99183.63
2018-03-08T21:07:43.870Z,99189.67
2018-03-08T21:10:49.401Z,99198.67
2018-03-08T21:13:54.881Z,99191.64
2018-03-08T21:17:00.410Z,99197.31
2018-03-08T21:20:05.449Z,99194.48
2018-03-08T21:23:10.654Z,99195.48
2018-03-08T21:26:16.170Z,99196.92
2018-03-08T21:29:22.016Z,99200.02
2018-03-08T21:32:27.549Z,99205.14
2018-03-08T21:35:33.068Z,99210.36
2018-03-08T21:38:38.548Z,99203.73
2018-03-08T21:41:44.114Z,99208.06
2018-03-08T21:44:49.602Z,99213.21
2018-03-08T21:47:55.132Z,99205.70
2018-03-08T21:51:00.666Z,99206.26
2018-03-08T21:54:06.156Z,99206.36
2018-03-08T21:57:11.689Z,99204.79
2018-03-08T22:00:17.179Z,99213.74
2018-03-08T22:03:22.708Z,99214.26
2018-03-08T22:06:28.042Z,99213.09
2018-03-08T22:09:33.581Z,99221.63
2018-03-08T22:12:39.070Z,99213.27
2018-03-08T22:15:44.605Z,99213.38
2018-03-08T22:18:50.125Z,99214.73
2018-03-08T22:21:55.657Z,99211.04
2018-03-08T22:25:01.134Z,99210.28
2018-03-08T22:28:06.674Z,99212.45
2018-03-08T22:31:12.161Z,99210.83
2018-03-08T22:34:17.690Z,99213.84
2018-03-08T22:37:23.177Z,99205.93
2018-03-08T22:40:28.717Z,99202.64
2018-03-08T22:43:36.933Z,99205.63
2018-03-08T22:46:42.492Z,99207.38
2018-03-08T22:49:48.174Z,99213.33
2018-03-08T22:52:53.704Z,99206.59
2018-03-08T22:55:59.191Z,99203.26
2018-03-08T22:59:04.741Z,99204.97
2018-03-08T23:02:09.984Z,99197.88
2018-03-08T23:05:15.268Z,99213.09
2018-03-08T23:08:26.864Z,99208.47
2018-03-08T23:11:32.390Z,99204.77
2018-03-08T23:14:37.874Z,99205.17
2018-03-08T23:17:43.467Z,99207.81
2018-03-08T23:20:49.133Z,99203.59
2018-03-08T23:23:54.678Z,99196.47
2018-03-08T23:27:00.170Z,99196.92
2018-03-08T23:30:05.720Z,99199.52
2018-03-08T23:33:10.925Z,99203.77
2018-03-08T23:36:16.211Z,99204.28
2018-03-08T23:39:21.685Z,99199.20
2018-03-08T23:42:27.224Z,99207.23
2018-03-08T23:45:32.713Z,99201.81
2018-03-08T23:48:38.242Z,99203.08
2018-03-08T23:51:43.731Z,99199.31
2018-03-08T23:54:49.265Z,99203.94
2018-03-08T23:57:54.748Z,99202.25
